sensor_id;sensor_type;location;lat;lon;timestamp;pressure;altitude;pressure_sealevel;temperature;humidity
70302;BME280;57706;56.326;43.882;2023-03-23T00:02:13;100562.59;;;2.63;71.89
70302;BME280;57706;56.326;43.882;2023-03-23T00:04:39;100554.44;;;2.30;73.22
70302;BME280;57706;56.326;43.882;2023-03-23T00:07:05;100559.09;;;2.51;73.30
70302;BME280;57706;56.326;43.882;2023-03-23T00:09:30;100556.59;;;2.62;72.71
70302;BME280;57706;56.326;43.882;2023-03-23T00:12:00;100552.41;;;2.72;71.70
70302;BME280;57706;56.326;43.882;2023-03-23T00:14:34;100561.59;;;2.52;72.35
70302;BME280;57706;56.326;43.882;2023-03-23T00:17:08;100558.03;;;2.66;72.24
70302;BME280;57706;56.326;43.882;2023-03-23T00:19:37;100562.09;;;2.70;72.20
70302;BME280;57706;56.326;43.882;2023-03-23T00:22:15;100561.47;;;2.67;71.80
70302;BME280;57706;56.326;43.882;2023-03-23T00:24:43;100552.19;;;2.75;71.29
70302;BME280;57706;56.326;43.882;2023-03-23T00:27:09;100552.13;;;3.01;70.86
70302;BME280;57706;56.326;43.882;2023-03-23T00:29:38;100543.84;;;2.96;70.43
70302;BME280;57706;56.326;43.882;2023-03-23T00:32:05;100542.28;;;2.94;70.95
70302;BME280;57706;56.326;43.882;2023-03-23T00:34:32;100535.19;;;2.71;71.48
70302;BME280;57706;56.326;43.882;2023-03-23T00:36:59;100534.00;;;2.38;72.51
70302;BME280;57706;56.326;43.882;2023-03-23T00:39:27;100533.59;;;2.82;71.27
70302;BME280;57706;56.326;43.882;2023-03-23T00:41:54;100543.72;;;2.60;71.50
70302;BME280;57706;56.326;43.882;2023-03-23T00:44:27;100533.03;;;2.65;71.41
70302;BME280;57706;56.326;43.882;2023-03-23T00:46:54;100535.84;;;2.62;71.62
70302;BME280;57706;56.326;43.882;2023-03-23T00:49:23;100539.22;;;2.75;70.91
70302;BME280;57706;56.326;43.882;2023-03-23T00:51:54;100538.72;;;2.70;70.78
70302;BME280;57706;56.326;43.882;2023-03-23T00:54:21;100525.53;;;2.73;70.61
70302;BME280;57706;56.326;43.882;2023-03-23T00:56:49;100529.50;;;3.03;69.55
70302;BME280;57706;56.326;43.882;2023-03-23T00:59:16;100527.59;;;3.06;69.09
70302;BME280;57706;56.326;43.882;2023-03-23T01:01:43;100531.75;;;3.08;68.95
70302;BME280;57706;56.326;43.882;2023-03-23T01:04:09;100524.06;;;3.07;68.54
70302;BME280;57706;56.326;43.882;2023-03-23T01:06:39;100530.72;;;2.98;69.30
70302;BME280;57706;56.326;43.882;2023-03-23T01:09:15;100522.41;;;3.06;68.59
70302;BME280;57706;56.326;43.882;2023-03-23T01:11:43;100524.06;;;3.07;68.50
70302;BME280;57706;56.326;43.882;2023-03-23T01:14:11;100528.03;;;2.99;68.81
70302;BME280;57706;56.326;43.882;2023-03-23T01:16:37;100515.88;;;3.00;68.69
70302;BME280;57706;56.326;43.882;2023-03-23T01:19:03;100516.00;;;2.98;68.73
70302;BME280;57706;56.326;43.882;2023-03-23T01:21:29;100512.50;;;3.11;68.23
70302;BME280;57706;56.326;43.882;2023-03-23T01:23:55;100510.56;;;3.01;68.23
70302;BME280;57706;56.326;43.882;2023-03-23T01:26:25;100505.84;;;2.95;68.50
70302;BME280;57706;56.326;43.882;2023-03-23T01:28:52;100504.28;;;3.17;67.98
70302;BME280;57706;56.326;43.882;2023-03-23T01:31:23;100516.00;;;2.98;68.63
70302;BME280;57706;56.326;43.882;2023-03-23T01:33:51;100515.09;;;3.11;68.08
70302;BME280;57706;56.326;43.882;2023-03-23T01:36:20;100505.25;;;3.27;67.34
70302;BME280;57706;56.326;43.882;2023-03-23T01:38:47;100505.59;;;2.98;68.18
70302;BME280;57706;56.326;43.882;2023-03-23T01:41:15;100511.13;;;3.18;67.59
70302;BME280;57706;56.326;43.882;2023-03-23T01:46:53;100506.78;;;3.54;66.10
70302;BME280;57706;56.326;43.882;2023-03-23T01:49:24;100503.03;;;3.70;65.40
70302;BME280;57706;56.326;43.882;2023-03-23T01:52:14;100511.03;;;3.55;65.90
70302;BME280;57706;56.326;43.882;2023-03-23T01:54:44;100502.28;;;3.45;66.19
70302;BME280;57706;56.326;43.882;2023-03-23T01:57:14;100497.28;;;3.42;66.59
70302;BME280;57706;56.326;43.882;2023-03-23T01:59:43;100495.34;;;3.57;65.81
70302;BME280;57706;56.326;43.882;2023-03-23T02:02:20;100497.72;;;3.36;66.91
70302;BME280;57706;56.326;43.882;2023-03-23T02:04:47;100507.31;;;3.71;65.50
70302;BME280;57706;56.326;43.882;2023-03-23T02:07:15;100506.09;;;3.64;65.89
70302;BME280;57706;56.326;43.882;2023-03-23T02:09:42;100503.44;;;3.52;66.15
70302;BME280;57706;56.326;43.882;2023-03-23T02:12:08;100513.41;;;3.58;66.15
70302;BME280;57706;56.326;43.882;2023-03-23T02:14:36;100514.34;;;3.69;65.65
70302;BME280;57706;56.326;43.882;2023-03-23T02:33:38;100495.75;;;3.87;65.78
70302;BME280;57706;56.326;43.882;2023-03-23T02:36:20;100496.22;;;3.92;65.79
70302;BME280;57706;56.326;43.882;2023-03-23T02:39:05;100509.16;;;3.69;66.36
70302;BME280;57706;56.326;43.882;2023-03-23T02:41:49;100492.91;;;3.90;65.47
70302;BME280;57706;56.326;43.882;2023-03-23T02:44:17;100501.91;;;3.97;65.46
70302;BME280;57706;56.326;43.882;2023-03-23T02:46:44;100490.06;;;3.93;65.53
70302;BME280;57706;56.326;43.882;2023-03-23T02:49:13;100503.44;;;3.99;65.35
70302;BME280;57706;56.326;43.882;2023-03-23T02:51:42;100506.28;;;4.08;64.91
70302;BME280;57706;56.326;43.882;2023-03-23T02:54:10;100492.19;;;3.99;65.07
70302;BME280;57706;56.326;43.882;2023-03-23T02:56:38;100500.34;;;3.83;65.85
70302;BME280;57706;56.326;43.882;2023-03-23T02:59:12;100497.88;;;3.93;65.65
70302;BME280;57706;56.326;43.882;2023-03-23T03:04:15;100495.50;;;3.78;66.17
70302;BME280;57706;56.326;43.882;2023-03-23T03:09:21;100497.09;;;3.56;66.76
70302;BME280;57706;56.326;43.882;2023-03-23T03:11:56;100496.41;;;3.77;66.04
70302;BME280;57706;56.326;43.882;2023-03-23T03:14:31;100500.59;;;4.03;65.16
70302;BME280;57706;56.326;43.882;2023-03-23T03:17:17;100496.00;;;4.06;64.79
70302;BME280;57706;56.326;43.882;2023-03-23T03:19:49;100494.81;;;3.88;65.42
70302;BME280;57706;56.326;43.882;2023-03-23T03:22:17;100500.84;;;3.99;64.95
70302;BME280;57706;56.326;43.882;2023-03-23T03:24:47;100499.09;;;4.11;64.66
70302;BME280;57706;56.326;43.882;2023-03-23T03:27:17;100495.66;;;4.34;63.86
70302;BME280;57706;56.326;43.882;2023-03-23T03:29:49;100499.69;;;4.15;64.51
70302;BME280;57706;56.326;43.882;2023-03-23T03:32:25;100500.63;;;4.25;63.85
70302;BME280;57706;56.326;43.882;2023-03-23T03:35:00;100495.63;;;4.11;64.73
70302;BME280;57706;56.326;43.882;2023-03-23T03:37:26;100497.75;;;4.29;64.01
70302;BME280;57706;56.326;43.882;2023-03-23T03:39:52;100493.16;;;4.32;63.91
70302;BME280;57706;56.326;43.882;2023-03-23T03:42:18;100492.09;;;4.23;64.11
70302;BME280;57706;56.326;43.882;2023-03-23T03:44:45;100493.25;;;4.31;64.00
70302;BME280;57706;56.326;43.882;2023-03-23T03:47:10;100495.63;;;4.57;63.02
70302;BME280;57706;56.326;43.882;2023-03-23T03:49:36;100488.16;;;4.63;62.51
70302;BME280;57706;56.326;43.882;2023-03-23T03:52:02;100490.28;;;4.58;62.79
70302;BME280;57706;56.326;43.882;2023-03-23T03:54:40;100494.31;;;4.51;62.76
70302;BME280;57706;56.326;43.882;2023-03-23T03:57:06;100496.19;;;4.72;61.96
70302;BME280;57706;56.326;43.882;2023-03-23T04:00:04;100502.00;;;4.75;61.95
70302;BME280;57706;56.326;43.882;2023-03-23T04:02:46;100507.34;;;4.62;62.11
70302;BME280;57706;56.326;43.882;2023-03-23T04:05:17;100497.59;;;4.87;61.68
70302;BME280;57706;56.326;43.882;2023-03-23T04:07:47;100494.19;;;4.75;62.00
70302;BME280;57706;56.326;43.882;2023-03-23T04:10:19;100492.81;;;4.92;61.11
70302;BME280;57706;56.326;43.882;2023-03-23T04:12:48;100494.47;;;4.93;61.14
70302;BME280;57706;56.326;43.882;2023-03-23T04:15:46;100491.59;;;5.08;60.55
70302;BME280;57706;56.326;43.882;2023-03-23T04:18:13;100494.47;;;5.26;59.90
70302;BME280;57706;56.326;43.882;2023-03-23T04:20:45;100498.63;;;5.29;59.75
70302;BME280;57706;56.326;43.882;2023-03-23T04:23:16;100498.66;;;5.17;59.90
70302;BME280;57706;56.326;43.882;2023-03-23T04:25:47;100493.22;;;5.09;60.22
70302;BME280;57706;56.326;43.882;2023-03-23T04:28:14;100491.00;;;5.37;59.23
70302;BME280;57706;56.326;43.882;2023-03-23T04:30:53;100489.56;;;5.44;58.83
70302;BME280;57706;56.326;43.882;2023-03-23T04:33:21;100486.69;;;5.47;58.59
70302;BME280;57706;56.326;43.882;2023-03-23T04:35:48;100493.72;;;5.57;58.43
70302;BME280;57706;56.326;43.882;2023-03-23T04:38:32;100485.03;;;5.68;58.15
70302;BME280;57706;56.326;43.882;2023-03-23T04:41:07;100484.31;;;5.87;57.44
70302;BME280;57706;56.326;43.882;2023-03-23T04:43:53;100494.09;;;5.95;57.05
70302;BME280;57706;56.326;43.882;2023-03-23T04:46:26;100490.91;;;5.91;57.46
70302;BME280;57706;56.326;43.882;2023-03-23T04:49:00;100486.94;;;5.97;56.98
70302;BME280;57706;56.326;43.882;2023-03-23T04:51:31;100490.09;;;6.12;56.48
70302;BME280;57706;56.326;43.882;2023-03-23T04:54:06;100504.69;;;6.24;56.00
70302;BME280;57706;56.326;43.882;2023-03-23T04:56:32;100497.75;;;6.03;56.60
70302;BME280;57706;56.326;43.882;2023-03-23T04:59:04;100500.25;;;6.15;56.37
70302;BME280;57706;56.326;43.882;2023-03-23T05:01:45;100505.81;;;6.31;56.07
70302;BME280;57706;56.326;43.882;2023-03-23T05:04:19;100497.66;;;6.15;56.13
70302;BME280;57706;56.326;43.882;2023-03-23T05:06:56;100496.28;;;6.20;55.83
70302;BME280;57706;56.326;43.882;2023-03-23T05:09:26;100494.75;;;6.18;55.97
70302;BME280;57706;56.326;43.882;2023-03-23T05:11:52;100494.28;;;6.34;55.36
70302;BME280;57706;56.326;43.882;2023-03-23T05:14:18;100494.25;;;6.24;55.68
70302;BME280;57706;56.326;43.882;2023-03-23T05:16:51;100499.75;;;6.21;55.52
70302;BME280;57706;56.326;43.882;2023-03-23T05:19:18;100502.22;;;6.23;55.66
70302;BME280;57706;56.326;43.882;2023-03-23T05:21:45;100500.75;;;6.40;55.11
70302;BME280;57706;56.326;43.882;2023-03-23T05:24:11;100510.88;;;6.74;54.13
70302;BME280;57706;56.326;43.882;2023-03-23T05:26:37;100504.81;;;6.64;54.29
70302;BME280;57706;56.326;43.882;2023-03-23T05:29:11;100511.69;;;6.65;53.78
70302;BME280;57706;56.326;43.882;2023-03-23T05:31:44;100511.16;;;6.71;53.70
70302;BME280;57706;56.326;43.882;2023-03-23T05:34:11;100506.78;;;6.81;53.61
70302;BME280;57706;56.326;43.882;2023-03-23T05:36:47;100502.38;;;6.92;53.08
70302;BME280;57706;56.326;43.882;2023-03-23T05:39:30;100504.59;;;6.86;53.13
70302;BME280;57706;56.326;43.882;2023-03-23T05:42:15;100499.66;;;7.03;52.69
70302;BME280;57706;56.326;43.882;2023-03-23T05:45:13;100496.34;;;7.11;52.18
70302;BME280;57706;56.326;43.882;2023-03-23T05:47:40;100499.38;;;6.86;53.10
70302;BME280;57706;56.326;43.882;2023-03-23T05:50:11;100499.25;;;6.98;52.83
70302;BME280;57706;56.326;43.882;2023-03-23T05:52:39;100502.56;;;7.20;52.08
70302;BME280;57706;56.326;43.882;2023-03-23T05:55:08;100496.63;;;7.37;51.56
70302;BME280;57706;56.326;43.882;2023-03-23T05:57:37;100498.97;;;7.40;51.27
70302;BME280;57706;56.326;43.882;2023-03-23T06:00:26;100505.72;;;7.33;51.17
70302;BME280;57706;56.326;43.882;2023-03-23T06:03:02;100507.66;;;7.11;52.37
70302;BME280;57706;56.326;43.882;2023-03-23T06:05:35;100505.72;;;7.23;51.65
70302;BME280;57706;56.326;43.882;2023-03-23T06:08:02;100507.22;;;7.55;51.06
70302;BME280;57706;56.326;43.882;2023-03-23T06:10:28;100503.22;;;7.41;50.92
70302;BME280;57706;56.326;43.882;2023-03-23T06:13:00;100504.88;;;7.62;50.60
70302;BME280;57706;56.326;43.882;2023-03-23T06:15:34;100503.22;;;7.41;50.75
70302;BME280;57706;56.326;43.882;2023-03-23T06:18:09;100511.75;;;7.63;50.91
70302;BME280;57706;56.326;43.882;2023-03-23T06:20:41;100513.63;;;7.81;50.38
70302;BME280;57706;56.326;43.882;2023-03-23T06:23:38;100520.22;;;7.95;50.41
70302;BME280;57706;56.326;43.882;2023-03-23T06:26:06;100523.53;;;7.97;50.02
70302;BME280;57706;56.326;43.882;2023-03-23T06:28:34;100512.75;;;8.10;49.44
70302;BME280;57706;56.326;43.882;2023-03-23T06:31:01;100517.72;;;8.03;49.58
70302;BME280;57706;56.326;43.882;2023-03-23T06:33:27;100514.41;;;8.11;49.50
70302;BME280;57706;56.326;43.882;2023-03-23T06:36:16;100518.88;;;7.81;50.43
70302;BME280;57706;56.326;43.882;2023-03-23T06:38:50;100521.72;;;7.97;50.07
70302;BME280;57706;56.326;43.882;2023-03-23T06:41:20;100509.84;;;8.13;49.60
70302;BME280;57706;56.326;43.882;2023-03-23T06:43:47;100506.03;;;7.88;50.51
70302;BME280;57706;56.326;43.882;2023-03-23T06:46:17;100507.97;;;8.33;49.24
70302;BME280;57706;56.326;43.882;2023-03-23T06:48:52;100522.34;;;8.57;48.66
70302;BME280;57706;56.326;43.882;2023-03-23T06:51:24;100518.56;;;8.32;48.74
70302;BME280;57706;56.326;43.882;2023-03-23T06:53:52;100519.41;;;7.94;50.34
70302;BME280;57706;56.326;43.882;2023-03-23T06:56:18;100522.84;;;8.33;49.24
70302;BME280;57706;56.326;43.882;2023-03-23T06:58:45;100525.84;;;8.38;49.20
70302;BME280;57706;56.326;43.882;2023-03-23T07:01:12;100525.25;;;8.54;48.80
70302;BME280;57706;56.326;43.882;2023-03-23T07:03:43;100521.34;;;8.68;48.68
70302;BME280;57706;56.326;43.882;2023-03-23T07:06:11;100534.72;;;8.93;48.27
70302;BME280;57706;56.326;43.882;2023-03-23T07:08:46;100520.16;;;8.80;48.22
70302;BME280;57706;56.326;43.882;2023-03-23T07:11:17;100516.28;;;8.85;48.03
70302;BME280;57706;56.326;43.882;2023-03-23T07:13:42;100511.78;;;8.95;47.85
70302;BME280;57706;56.326;43.882;2023-03-23T07:16:09;100507.53;;;8.94;47.88
70302;BME280;57706;56.326;43.882;2023-03-23T07:18:36;100505.13;;;9.01;47.66
70302;BME280;57706;56.326;43.882;2023-03-23T07:21:04;100506.69;;;9.12;47.28
70302;BME280;57706;56.326;43.882;2023-03-23T07:23:31;100501.59;;;9.28;47.04
70302;BME280;57706;56.326;43.882;2023-03-23T07:26:01;100506.66;;;9.93;45.72
70302;BME280;57706;56.326;43.882;2023-03-23T07:28:37;100495.06;;;9.77;45.80
70302;BME280;57706;56.326;43.882;2023-03-23T07:31:32;100486.75;;;10.25;44.88
70302;BME280;57706;56.326;43.882;2023-03-23T07:33:58;100490.63;;;10.04;45.13
70302;BME280;57706;56.326;43.882;2023-03-23T07:36:33;100495.03;;;10.03;45.30
70302;BME280;57706;56.326;43.882;2023-03-23T07:39:04;100486.13;;;10.31;44.82
70302;BME280;57706;56.326;43.882;2023-03-23T07:41:34;100493.63;;;10.52;44.13
70302;BME280;57706;56.326;43.882;2023-03-23T07:44:08;100487.63;;;9.99;45.15
70302;BME280;57706;56.326;43.882;2023-03-23T07:46:35;100494.81;;;10.66;44.13
70302;BME280;57706;56.326;43.882;2023-03-23T07:49:27;100491.19;;;10.59;43.45
70302;BME280;57706;56.326;43.882;2023-03-23T07:52:04;100500.69;;;10.52;43.47
70302;BME280;57706;56.326;43.882;2023-03-23T07:54:30;100486.25;;;10.64;43.61
70302;BME280;57706;56.326;43.882;2023-03-23T07:57:03;100483.38;;;11.00;42.74
70302;BME280;57706;56.326;43.882;2023-03-23T07:59:33;100500.13;;;11.16;42.25
70302;BME280;57706;56.326;43.882;2023-03-23T08:01:59;100486.03;;;11.34;42.07
70302;BME280;57706;56.326;43.882;2023-03-23T08:04:30;100481.72;;;11.33;41.79
70302;BME280;57706;56.326;43.882;2023-03-23T08:07:34;100486.69;;;11.19;42.36
70302;BME280;57706;56.326;43.882;2023-03-23T08:10:17;100483.31;;;11.92;41.13
70302;BME280;57706;56.326;43.882;2023-03-23T08:13:02;100475.00;;;11.30;41.81
70302;BME280;57706;56.326;43.882;2023-03-23T08:15:41;100486.81;;;11.67;41.17
70302;BME280;57706;56.326;43.882;2023-03-23T08:18:25;100478.53;;;12.44;39.79
70302;BME280;57706;56.326;43.882;2023-03-23T08:20:56;100472.25;;;13.00;38.89
70302;BME280;57706;56.326;43.882;2023-03-23T08:23:44;100470.69;;;13.67;37.05
70302;BME280;57706;56.326;43.882;2023-03-23T08:26:33;100455.66;;;15.65;33.99
70302;BME280;57706;56.326;43.882;2023-03-23T08:29:17;100452.38;;;18.74;29.11
70302;BME280;57706;56.326;43.882;2023-03-23T08:31:49;100451.59;;;22.10;25.04
70302;BME280;57706;56.326;43.882;2023-03-23T08:34:30;100448.38;;;22.83;23.39
70302;BME280;57706;56.326;43.882;2023-03-23T08:37:25;100443.50;;;26.41;20.13
70302;BME280;57706;56.326;43.882;2023-03-23T08:40:00;100430.28;;;26.91;18.97
70302;BME280;57706;56.326;43.882;2023-03-23T08:42:39;100427.06;;;27.86;17.99
70302;BME280;57706;56.326;43.882;2023-03-23T08:45:31;100419.78;;;26.85;17.99
70302;BME280;57706;56.326;43.882;2023-03-23T08:48:15;100427.41;;;27.69;17.41
70302;BME280;57706;56.326;43.882;2023-03-23T08:51:20;100427.47;;;27.48;17.35
70302;BME280;57706;56.326;43.882;2023-03-23T08:54:15;100410.59;;;26.86;18.29
70302;BME280;57706;56.326;43.882;2023-03-23T08:57:01;100420.16;;;27.54;17.81
70302;BME280;57706;56.326;43.882;2023-03-23T08:59:42;100408.06;;;25.80;19.19
70302;BME280;57706;56.326;43.882;2023-03-23T09:02:30;100407.72;;;22.40;22.70
70302;BME280;57706;56.326;43.882;2023-03-23T09:05:17;100402.19;;;24.22;20.85
70302;BME280;57706;56.326;43.882;2023-03-23T09:08:03;100408.22;;;21.55;23.84
70302;BME280;57706;56.326;43.882;2023-03-23T09:10:29;100415.75;;;23.65;21.65
70302;BME280;57706;56.326;43.882;2023-03-23T09:12:58;100411.31;;;23.76;21.90
70302;BME280;57706;56.326;43.882;2023-03-23T09:15:24;100404.34;;;22.96;22.55
70302;BME280;57706;56.326;43.882;2023-03-23T09:17:51;100389.78;;;25.24;20.71
70302;BME280;57706;56.326;43.882;2023-03-23T09:20:21;100400.38;;;26.51;18.79
70302;BME280;57706;56.326;43.882;2023-03-23T09:22:49;100382.88;;;26.54;19.10
70302;BME280;57706;56.326;43.882;2023-03-23T09:25:18;100396.91;;;28.83;16.84
70302;BME280;57706;56.326;43.882;2023-03-23T09:27:48;100376.59;;;28.27;17.13
70302;BME280;57706;56.326;43.882;2023-03-23T09:30:18;100368.41;;;28.67;16.62
70302;BME280;57706;56.326;43.882;2023-03-23T09:32:45;100364.97;;;29.59;16.19
70302;BME280;57706;56.326;43.882;2023-03-23T09:35:11;100357.94;;;29.96;15.92
70302;BME280;57706;56.326;43.882;2023-03-23T09:37:40;100362.06;;;31.58;14.36
70302;BME280;57706;56.326;43.882;2023-03-23T09:40:11;100349.56;;;30.78;14.72
70302;BME280;57706;56.326;43.882;2023-03-23T09:45:39;100335.19;;;29.97;15.36
70302;BME280;57706;56.326;43.882;2023-03-23T09:50:37;100331.06;;;30.66;15.48
70302;BME280;57706;56.326;43.882;2023-03-23T09:53:19;100329.53;;;26.61;18.23
70302;BME280;57706;56.326;43.882;2023-03-23T09:55:46;100325.66;;;27.70;17.72
70302;BME280;57706;56.326;43.882;2023-03-23T09:58:25;100310.34;;;26.78;18.24
70302;BME280;57706;56.326;43.882;2023-03-23T10:03:35;100297.34;;;28.37;17.49
70302;BME280;57706;56.326;43.882;2023-03-23T10:06:02;100290.53;;;28.69;17.11
70302;BME280;57706;56.326;43.882;2023-03-23T10:08:31;100292.03;;;28.56;17.15
70302;BME280;57706;56.326;43.882;2023-03-23T10:11:03;100290.13;;;29.49;16.53
70302;BME280;57706;56.326;43.882;2023-03-23T10:16:15;100292.22;;;28.00;17.85
70302;BME280;57706;56.326;43.882;2023-03-23T10:18:49;100293.84;;;27.01;18.86
70302;BME280;57706;56.326;43.882;2023-03-23T10:21:22;100292.31;;;29.47;16.65
70302;BME280;57706;56.326;43.882;2023-03-23T10:23:59;100283.06;;;27.01;18.55
70302;BME280;57706;56.326;43.882;2023-03-23T10:31:36;100275.25;;;28.83;17.36
70302;BME280;57706;56.326;43.882;2023-03-23T10:34:10;100269.22;;;30.82;15.66
70302;BME280;57706;56.326;43.882;2023-03-23T10:36:52;100274.25;;;26.64;19.32
70302;BME280;57706;56.326;43.882;2023-03-23T10:39:23;100257.63;;;27.23;19.04
70302;BME280;57706;56.326;43.882;2023-03-23T10:41:52;100278.56;;;26.70;19.84
70302;BME280;57706;56.326;43.882;2023-03-23T10:44:20;100269.34;;;23.97;22.33
70302;BME280;57706;56.326;43.882;2023-03-23T10:47:03;100253.88;;;24.09;22.67
70302;BME280;57706;56.326;43.882;2023-03-23T10:55:01;100245.13;;;24.62;22.86
70302;BME280;57706;56.326;43.882;2023-03-23T10:57:30;100232.09;;;24.43;22.73
70302;BME280;57706;56.326;43.882;2023-03-23T11:00:15;100246.25;;;25.46;22.05
70302;BME280;57706;56.326;43.882;2023-03-23T11:02:46;100240.59;;;25.47;21.65
70302;BME280;57706;56.326;43.882;2023-03-23T11:05:20;100225.44;;;28.90;18.55
70302;BME280;57706;56.326;43.882;2023-03-23T11:07:51;100227.38;;;27.31;19.67
70302;BME280;57706;56.326;43.882;2023-03-23T11:13:15;100226.47;;;26.85;20.46
70302;BME280;57706;56.326;43.882;2023-03-23T11:15:43;100225.00;;;24.27;23.43
70302;BME280;57706;56.326;43.882;2023-03-23T11:18:18;100219.97;;;27.02;20.42
70302;BME280;57706;56.326;43.882;2023-03-23T11:20:46;100214.31;;;25.70;21.78
70302;BME280;57706;56.326;43.882;2023-03-23T11:28:37;100224.25;;;26.32;21.07
70302;BME280;57706;56.326;43.882;2023-03-23T11:31:05;100196.72;;;27.91;19.63
70302;BME280;57706;56.326;43.882;2023-03-23T11:34:01;100198.78;;;27.30;19.94
70302;BME280;57706;56.326;43.882;2023-03-23T11:36:40;100203.75;;;26.36;21.19
70302;BME280;57706;56.326;43.882;2023-03-23T11:41:49;100183.47;;;26.64;21.05
70302;BME280;57706;56.326;43.882;2023-03-23T11:44:15;100187.34;;;26.01;21.68
70302;BME280;57706;56.326;43.882;2023-03-23T11:46:57;100173.28;;;25.06;22.87
70302;BME280;57706;56.326;43.882;2023-03-23T11:50:08;100180.63;;;26.24;21.29
70302;BME280;57706;56.326;43.882;2023-03-23T11:57:41;100173.78;;;27.14;20.33
70302;BME280;57706;56.326;43.882;2023-03-23T12:00:15;100175.22;;;27.81;19.74
70302;BME280;57706;56.326;43.882;2023-03-23T12:02:59;100173.13;;;25.54;22.12
70302;BME280;57706;56.326;43.882;2023-03-23T12:20:01;100148.31;;;24.41;23.43
70302;BME280;57706;56.326;43.882;2023-03-23T12:31:25;100142.66;;;26.16;21.38
70302;BME280;57706;56.326;43.882;2023-03-23T12:34:15;100129.09;;;24.70;23.15
70302;BME280;57706;56.326;43.882;2023-03-23T12:44:59;100128.09;;;23.85;24.28
70302;BME280;57706;56.326;43.882;2023-03-23T12:53:16;100134.91;;;23.05;25.74
70302;BME280;57706;56.326;43.882;2023-03-23T12:58:15;100131.94;;;20.62;28.84
70302;BME280;57706;56.326;43.882;2023-03-23T13:00:54;100143.34;;;20.98;28.62
70302;BME280;57706;56.326;43.882;2023-03-23T13:08:59;100112.06;;;21.28;28.34
70302;BME280;57706;56.326;43.882;2023-03-23T13:11:32;100112.19;;;21.67;27.84
70302;BME280;57706;56.326;43.882;2023-03-23T13:17:16;100117.88;;;22.27;27.12
70302;BME280;57706;56.326;43.882;2023-03-23T13:23:12;100122.16;;;21.55;28.22
70302;BME280;57706;56.326;43.882;2023-03-23T13:26:12;100122.50;;;19.94;30.45
70302;BME280;57706;56.326;43.882;2023-03-23T13:31:17;100118.56;;;19.97;30.87
70302;BME280;57706;56.326;43.882;2023-03-23T13:33:52;100121.13;;;19.07;32.28
70302;BME280;57706;56.326;43.882;2023-03-23T13:36:28;100098.53;;;17.97;34.02
70302;BME280;57706;56.326;43.882;2023-03-23T13:38:56;100116.03;;;18.87;32.71
70302;BME280;57706;56.326;43.882;2023-03-23T13:41:23;100116.94;;;19.53;31.70
70302;BME280;57706;56.326;43.882;2023-03-23T13:43:49;100123.34;;;18.16;33.90
70302;BME280;57706;56.326;43.882;2023-03-23T13:48:49;100115.03;;;17.81;34.62
70302;BME280;57706;56.326;43.882;2023-03-23T13:59:27;100117.78;;;16.37;37.36
70302;BME280;57706;56.326;43.882;2023-03-23T14:01:55;100119.84;;;16.21;37.66
70302;BME280;57706;56.326;43.882;2023-03-23T14:04:23;100120.91;;;15.93;38.13
70302;BME280;57706;56.326;43.882;2023-03-23T14:06:56;100119.88;;;14.56;40.96
70302;BME280;57706;56.326;43.882;2023-03-23T14:09:39;100120.38;;;14.67;41.18
70302;BME280;57706;56.326;43.882;2023-03-23T14:12:15;100123.22;;;14.72;40.95
70302;BME280;57706;56.326;43.882;2023-03-23T14:17:13;100130.13;;;13.81;42.97
70302;BME280;57706;56.326;43.882;2023-03-23T14:19:41;100125.47;;;13.39;44.10
70302;BME280;57706;56.326;43.882;2023-03-23T14:22:24;100138.69;;;12.87;45.22
70302;BME280;57706;56.326;43.882;2023-03-23T14:24:51;100136.47;;;13.06;45.00
70302;BME280;57706;56.326;43.882;2023-03-23T14:27:21;100141.69;;;12.69;45.71
70302;BME280;57706;56.326;43.882;2023-03-23T14:29:57;100137.22;;;12.39;46.43
70302;BME280;57706;56.326;43.882;2023-03-23T14:32:24;100128.09;;;11.74;48.13
70302;BME280;57706;56.326;43.882;2023-03-23T14:34:51;100133.09;;;11.37;49.66
70302;BME280;57706;56.326;43.882;2023-03-23T14:37:18;100123.59;;;11.04;50.19
70302;BME280;57706;56.326;43.882;2023-03-23T14:39:48;100128.44;;;10.84;51.38
70302;BME280;57706;56.326;43.882;2023-03-23T14:42:17;100129.19;;;10.53;52.19
70302;BME280;57706;56.326;43.882;2023-03-23T14:44:47;100121.66;;;10.33;52.86
70302;BME280;57706;56.326;43.882;2023-03-23T14:47:28;100132.34;;;10.23;53.00
70302;BME280;57706;56.326;43.882;2023-03-23T14:49:58;100125.28;;;10.07;53.79
70302;BME280;57706;56.326;43.882;2023-03-23T14:52:27;100131.22;;;9.76;54.71
70302;BME280;57706;56.326;43.882;2023-03-23T14:54:53;100130.25;;;10.02;54.12
70302;BME280;57706;56.326;43.882;2023-03-23T14:57:28;100130.56;;;9.82;54.77
70302;BME280;57706;56.326;43.882;2023-03-23T14:59:55;100142.69;;;9.75;54.93
70302;BME280;57706;56.326;43.882;2023-03-23T15:02:37;100131.50;;;9.40;55.86
70302;BME280;57706;56.326;43.882;2023-03-23T15:05:26;100132.75;;;9.11;56.84
70302;BME280;57706;56.326;43.882;2023-03-23T15:07:54;100141.50;;;9.36;56.45
70302;BME280;57706;56.326;43.882;2023-03-23T15:10:23;100141.63;;;9.18;56.79
70302;BME280;57706;56.326;43.882;2023-03-23T15:12:50;100141.28;;;9.21;56.87
70302;BME280;57706;56.326;43.882;2023-03-23T15:15:32;100142.94;;;9.22;56.60
70302;BME280;57706;56.326;43.882;2023-03-23T15:17:59;100141.72;;;9.00;57.08
70302;BME280;57706;56.326;43.882;2023-03-23T15:20:29;100156.91;;;8.88;57.80
70302;BME280;57706;56.326;43.882;2023-03-23T15:22:56;100140.47;;;8.77;57.85
70302;BME280;57706;56.326;43.882;2023-03-23T15:25:49;100144.28;;;8.83;57.87